»·PEaware :: N7886N KAPV-KLAX

N7886N :: KAPV-KLAX

FLIGHT INFORMATION

Flight Status: Arrived
Operator: Privately registered:
United States
More flights under this callsign
Pilot: Lake Area Tech (24716)
Aircraft: CESSNA 172 SKYHAWK
(C172)
More flights by this aircraft type
Origin: KAPV Apple Valley
United States
Destination: KLAX Los Angeles Intl
United States
More flights between these airports :: More routes between these airports
Route: +EXCON APLES V442 PDZ V8 SLI
File this flight plan on PilotEdge
Remarks: +CW /
Altitude:
(Current/Filed)
8,000ft
Speed:
(Current/Filed)
110kts
Departed: 14-Feb-20 08:56 AM
Arrived: 14-Feb-20 09:51 AM
Distance/Time
Traveled:
71nm/0:54
Distance/Time
To Go:
Arrived

Flight Plot

Page will automatically refresh every two minutes.

Flight plan parsing failed; only flown route is shown


Map Options




Map Legend


Flown Route
Filed Route
Departure Airport
Arrival Airport
Navaid (VOR, NDB)
Fix

Horizontal Profiles

Position Reports

Time Latitude Longitude Heading Altitude Ground
Speed
14-Feb-20 08:25 34.571384 -117.190704 89 3066ft 0kts
14-Feb-20 08:26 34.571384 -117.190704 89 3066ft 0kts
14-Feb-20 08:27 34.571384 -117.190704 89 3066ft 0kts
14-Feb-20 08:28 34.571384 -117.190704 89 3066ft 0kts
14-Feb-20 08:29 34.571384 -117.190704 89 3066ft 0kts
14-Feb-20 08:30 34.571384 -117.190704 89 3066ft 0kts
14-Feb-20 08:31 34.571384 -117.190704 89 3066ft 0kts
14-Feb-20 08:32 34.571384 -117.190704 89 3066ft 0kts
14-Feb-20 08:33 34.571384 -117.190704 89 3066ft 0kts
14-Feb-20 08:34 34.571384 -117.190704 89 3066ft 0kts
14-Feb-20 08:35 34.571384 -117.190704 89 3066ft 0kts
14-Feb-20 08:36 34.571384 -117.190704 89 3066ft 0kts
14-Feb-20 08:37 34.571384 -117.190704 89 3066ft 0kts
14-Feb-20 08:38 34.571384 -117.190704 89 3066ft 0kts
14-Feb-20 08:39 34.571384 -117.190704 89 3066ft 0kts
14-Feb-20 08:40 34.571384 -117.190704 89 3066ft 0kts
14-Feb-20 08:41 34.571384 -117.190704 89 3066ft 0kts
14-Feb-20 08:42 34.571384 -117.190704 89 3066ft 0kts
14-Feb-20 08:43 34.571384 -117.190704 89 3066ft 0kts
14-Feb-20 08:44 34.571384 -117.190704 89 3066ft 0kts
14-Feb-20 08:45 34.571384 -117.190704 89 3066ft 0kts
14-Feb-20 08:46 34.571384 -117.190704 89 3066ft 0kts
14-Feb-20 08:47 34.571384 -117.190704 89 3066ft 0kts
14-Feb-20 08:48 34.571384 -117.190704 89 3066ft 0kts
14-Feb-20 08:49 34.571384 -117.190704 89 3066ft 0kts
14-Feb-20 08:51 34.571384 -117.190704 89 3066ft 0kts
14-Feb-20 08:52 34.570705 -117.189346 89 3066ft 0kts
14-Feb-20 08:53 34.570705 -117.189346 101 3066ft 0kts
14-Feb-20 08:54 34.570705 -117.189346 101 3066ft 0kts
14-Feb-20 08:55 34.570696 -117.189310 110 3066ft 2kts
14-Feb-20 08:56 34.580336 -117.185175 14 3305ft 83kts
14-Feb-20 08:57 34.605146 -117.176533 16 4286ft 101kts
14-Feb-20 08:58 34.631629 -117.177979 352 5425ft 92kts
14-Feb-20 08:59 34.655931 -117.182192 353 6490ft 85kts
14-Feb-20 09:00 34.679552 -117.184698 356 7415ft 86kts
14-Feb-20 09:01 34.702938 -117.187394 352 8305ft 84kts
14-Feb-20 09:02 34.725487 -117.192665 320 9140ft 81kts
14-Feb-20 09:03 34.711505 -117.200906 172 9873ft 79kts
14-Feb-20 09:04 34.683267 -117.194093 171 10079ft 126kts
14-Feb-20 09:05 34.649025 -117.186404 160 10150ft 126kts
14-Feb-20 09:06 34.615402 -117.172106 161 10171ft 131kts
14-Feb-20 09:07 34.580064 -117.159757 165 10140ft 133kts
14-Feb-20 09:08 34.545135 -117.156609 227 10170ft 131kts
14-Feb-20 09:09 34.513207 -117.176407 200 10118ft 134kts
14-Feb-20 09:10 34.479105 -117.193807 202 10079ft 135kts
14-Feb-20 09:10 34.451060 -117.210358 208 10039ft 134kts
14-Feb-20 09:11 34.417756 -117.230915 207 9994ft 134kts
14-Feb-20 09:13 34.378561 -117.252841 206 10018ft 129kts
14-Feb-20 09:13 34.355210 -117.267419 207 10089ft 128kts
14-Feb-20 09:14 34.323894 -117.288055 211 10180ft 128kts
14-Feb-20 09:16 34.286169 -117.311255 207 10082ft 138kts
14-Feb-20 09:16 34.257972 -117.327646 202 10060ft 134kts
14-Feb-20 09:17 34.225082 -117.346494 210 10133ft 130kts
14-Feb-20 09:18 34.193872 -117.368784 212 10148ft 132kts
14-Feb-20 09:19 34.160475 -117.385992 198 10181ft 131kts
14-Feb-20 09:20 34.127587 -117.404301 212 10220ft 131kts
14-Feb-20 09:21 34.094741 -117.425698 207 10129ft 134kts
14-Feb-20 09:22 34.059209 -117.448212 206 9434ft 149kts
14-Feb-20 09:23 34.021666 -117.470473 204 8550ft 149kts
14-Feb-20 09:24 33.984736 -117.489150 204 8025ft 134kts
14-Feb-20 09:25 33.952735 -117.507982 208 7970ft 125kts
14-Feb-20 09:26 33.921794 -117.527747 218 7898ft 126kts
14-Feb-20 09:27 33.909288 -117.565555 247 7961ft 120kts
14-Feb-20 09:28 33.897125 -117.607612 252 7437ft 139kts
14-Feb-20 09:29 33.885383 -117.651965 253 6956ft 137kts
14-Feb-20 09:30 33.874196 -117.696245 257 6473ft 138kts
14-Feb-20 09:31 33.866333 -117.741293 256 6073ft 132kts
14-Feb-20 09:32 33.856826 -117.781533 251 6027ft 124kts
14-Feb-20 09:33 33.847162 -117.820896 251 5980ft 121kts
14-Feb-20 09:34 33.836173 -117.859652 252 6033ft 123kts
14-Feb-20 09:35 33.824392 -117.898252 248 6131ft 124kts
14-Feb-20 09:36 33.813577 -117.938820 253 6097ft 128kts
14-Feb-20 09:37 33.802673 -117.978511 250 6143ft 129kts
14-Feb-20 09:38 33.811615 -118.014628 322 5993ft 136kts
14-Feb-20 09:39 33.842461 -118.043132 324 5372ft 140kts
14-Feb-20 09:40 33.874198 -118.072628 321 4613ft 141kts
14-Feb-20 09:41 33.902781 -118.103158 317 4141ft 135kts
14-Feb-20 09:42 33.931833 -118.133613 321 3467ft 141kts
14-Feb-20 09:43 33.954387 -118.170495 292 2799ft 134kts
14-Feb-20 09:44 33.954672 -118.213056 261 2527ft 114kts
14-Feb-20 09:45 33.950662 -118.247680 263 2349ft 90kts
14-Feb-20 09:46 33.947240 -118.278431 264 1832ft 96kts
14-Feb-20 09:47 33.944208 -118.310590 264 1448ft 95kts
14-Feb-20 09:48 33.941039 -118.343566 264 804ft 90kts
14-Feb-20 09:49 33.938328 -118.372742 263 350ft 86kts
14-Feb-20 09:50 33.936028 -118.393353 219 129ft 13kts

Navigation Log

Ident Type
Flight plan parsing failed, navigation log unavailable